Presented by SoCal Endurance & Team Big Bear

USA Cycling Logo USA Cycling Permit #2021-3266

Register

Online Registration Deadline: Thursday, Nov 11, 2021 at 11:59 PM PT

Select Your Category

Category Start Time Fee
1 - 12 HR SOLO OPEN MEN $110 9:00 AM $110
2 - 12 HR SOLO OPEN WOMEN $110 9:00 AM $110
3 - 12 HR SOLO MASTER MEN 30-39 $110 9:00 AM $110
4 - 12 HR SOLO MASTER MEN 40-49 $110 9:00 AM $110
5 - 12 HR SOLO MASTER MEN 50-59 $110 9:00 AM $110
6 - 12 HR SOLO MASTER MEN 60+ $110 9:00 AM $110
7 - 12 HR SOLO CAT 2 MEN $110 9:00 AM $110
8 - 12 HR SOLO CAT 2 WOMEN $110 9:00 AM $110
9 - 12 HR SOLO SINGLE SPEED $110 9:00 AM $110
10 - 12 HR 2 PERSON OPEN $180 9:00 AM $180
11 - 12 HR 2 PERSON COED $180 9:00 AM $180
12 - 12 HR 3 PERSON OPEN $260 9:00 AM $260
13 - 12 HR 4 PERSON OPEN $340 9:00 AM $340
14 - 12 HR 4 PERSON SALTY DOGS $340 9:00 AM $340
  • Combined Ages a Minimum of 200 Years
15 - 12 HR 4 PERSON WOMEN $340 9:00 AM $340
16 - 12 HR 2 PERSON HIGH SCHOOL BOYS $180 9:00 AM $180
17 - 12 HR 2 PERSON HIGH SCHOOL GIRLS $180 9:00 AM $180
18 - 12 HR 4 PERSON HIGH SCHOOL BOYS $340 9:00 AM $340
19 - 12 HR 4 PERSON HIGH SCHOOL GIRLS $340 9:00 AM $340
20 - 12 HR 4 PERSON HIGH SCHOOL COED $340 9:00 AM $340
21 - 6 HR SOLO OPEN MEN $80 9:10 AM $80
22 - 6 HR SOLO OPEN WOMEN $80 9:10 AM $80
23 - 6 HR SOLO MEN 19-29 $80 9:10 AM $80
24 - 6 HR SOLO MASTER MEN 30-39 $80 9:10 AM $80
25 - 6 HR SOLO MASTER MEN 40-49 $80 9:10 AM $80
26 - 6 HR SOLO MASTER MEN 50-59 $80 9:10 AM $80
27 - 6 HR SOLO MASTER MEN 60+ $80 9:10 AM $80
28 - 6 HR SOLO WOMEN 19-29 $80 9:10 AM $80
29 - 6 HR SOLO MASTER WOMEN 30-39 $80 9:10 AM $80
30 - 6 HR SOLO MASTER WOMEN 40-49 $80 9:10 AM $80
31 - 6 HR SOLO MASTER WOMEN 50+ $80 9:10 AM $80
32 - 6 HOUR SOLO OPEN SINGLE SPEED $80 9:10 AM $80
33 - 6 HR 2 PERSON OPEN $140 9:10 AM $140
34 - 6 HR 2 PERSON WOMEN $140 9:10 AM $140
35 - 6 HR 2 PERSON COED $140 9:10 AM $140
36 - 6 HR SOLO CLYDESDALE $70 9:10 AM $70
  • You must weigh 200 Pounds +
37 - TRUE BEGINNER $50 9:10 AM $50
  • This is a taste of what endurance racing is all about. You will take off at the same time as the 6 hour categories and complete the race course. There are no Awards for this category!
38 - 6 HR 2 PERSON MASTER MEN 30-49 $140 9:10 AM $140
39 - 6 HR 2 PERSON MASTER MEN 50+ $140 9:10 AM $140
40 - 6 HR 2 PERSON MASTER WOMEN 30+ $140 9:10 AM $140
41 - 6 HR SOLO VARSITY BOYS $80 9:10 AM $80
42 - 6 HR SOLO JV BOYS $80 9:10 AM $80
43 - 6 HR SOLO VARSITY GIRLS $80 9:10 AM $80
44 - 6 HR SOLO JV GIRLS $80 9:10 AM $80
45 - 6 HR 2 PERSON VARSITY BOYS $140 9:10 AM $140
46 - 6 HR 2 PERSON JV BOYS $140 9:10 AM $140
47 - 6 HR 2 PERSON VARSITY GIRLS $140 9:10 AM $140
48 - 6 HR 2 PERSON JV GIRLS $140 9:10 AM $140
49 - 6 HR 3 PERSON HIGH SCHOOL OPEN $210 9:10 AM $210
50 - 6 HR 3 PERSON MIDDLE SCHOOL BOYS $210 9:10 AM $210
51 - 6 HR 3 PERSON MIDDLE SCHOOL GIRLS $210 9:10 AM $210

Location & Contact

Location address:
38000 Highway 79 south, temecula, ca 92591, Temecula, CA  92591
Event Phone Number:
(909) 633-6729
Event Website
http://www.teambigbear.com
Contact Us

Other Events from this Director